KIKK/IKK METAR and TAF weather

Enter ICAO airport designator
Station Type Date Time Source
KIKK METAR 2020/07/12 00:56 UTC NOAA

KIKK 120056Z AUTO 00000KT 10SM CLR 26/19 A2984 RMK AO2 LTG DSNT W


Station Type Date Time Source
KIKK Decoded METAR 2020/07/12 00:56 UTC NOAA

Kankakee, Greater Kankakee Airport, IL, United States (KIKK) 41-04-17N 087-50-47W
Jul 11, 2020 - 08:56 PM EDT / 2020.07.12 0056 UTC
Wind: Calm:0
Visibility: 10 mile(s):0
Sky conditions: clear
Weather: Lightning observed
Temperature: 78 F (26 C)
Dew Point: 66 F (19 C)
Relative Humidity: 65%
Pressure (altimeter): 29.84 in. Hg (1010 hPa)
ob: KIKK 120056Z AUTO 00000KT 10SM CLR 26/19 A2984 RMK AO2 LTG DSNT W
cycle: 1

Station Type Date Time Source
KIKK TAF UTC NOAA

Error!

Example: see airport list